Time;durP1;ratioP1;P1;durP2;ratioP2;P2;SDS_P1;SDS_P2;PMS_P1;PMS_P2;Temp;Humidity;BMP_temperature;BMP_pressure;BME280_temperature;BME280_humidity;BME280_pressure;Samples;Min_cycle;Max_cycle;Signal;HPM_P1;HPM_P2
2023/04/23 00:02:21;;;;;;;3.80;3.50;;;;;;;11.80;100.00;95734.00;4989978;28;101918;-61
2023/04/23 00:04:51;;;;;;;3.90;3.57;;;;;;;11.72;100.00;95731.88;4992759;28;105435;-61
2023/04/23 00:07:20;;;;;;;4.33;3.63;;;;;;;11.73;100.00;95733.47;4991559;28;102046;-61
2023/04/23 00:09:50;;;;;;;4.67;4.10;;;;;;;11.74;100.00;95736.94;4991444;28;102363;-61
2023/04/23 00:12:18;;;;;;;7.43;3.93;;;;;;;11.92;100.00;95726.47;4989520;28;105148;-61
2023/04/23 00:14:47;;;;;;;6.03;4.03;;;;;;;11.97;100.00;95726.44;4991000;28;102117;-61
2023/04/23 00:17:14;;;;;;;4.53;3.50;;;;;;;11.99;100.00;95724.28;4989857;28;103947;-61
2023/04/23 00:19:41;;;;;;;3.83;3.30;;;;;;;11.84;100.00;95729.69;4990445;28;103116;-61
2023/04/23 00:22:08;;;;;;;6.63;3.73;;;;;;;11.83;100.00;95722.00;4991211;28;101815;-61
2023/04/23 00:24:37;;;;;;;4.30;3.90;;;;;;;11.84;100.00;95723.56;4990347;28;102492;-61
2023/04/23 00:27:04;;;;;;;4.37;3.83;;;;;;;11.91;100.00;95724.88;4993979;28;102539;-61
2023/04/23 00:29:31;;;;;;;4.37;3.50;;;;;;;11.95;100.00;95731.22;4991163;28;102918;-61
2023/04/23 00:31:59;;;;;;;4.27;3.87;;;;;;;11.89;100.00;95724.34;4990059;28;102533;-61
2023/04/23 00:34:26;;;;;;;3.80;3.50;;;;;;;11.88;100.00;95717.41;4989774;28;101855;-61
2023/04/23 00:36:54;;;;;;;3.87;3.40;;;;;;;11.93;100.00;95724.59;4989504;28;104922;-61
2023/04/23 00:39:21;;;;;;;5.33;3.60;;;;;;;11.77;100.00;95723.09;4988514;28;105560;-61
2023/04/23 00:41:48;;;;;;;5.60;4.23;;;;;;;11.87;100.00;95712.34;4988879;28;101963;-61
2023/04/23 00:44:15;;;;;;;6.23;3.70;;;;;;;11.78;100.00;95719.34;4989487;28;105220;-61
2023/04/23 00:46:43;;;;;;;5.03;3.83;;;;;;;11.86;100.00;95713.44;4992271;28;104024;-61
2023/04/23 00:49:13;;;;;;;4.50;4.10;;;;;;;11.90;100.00;95714.50;4989470;28;105222;-61
2023/04/23 00:51:40;;;;;;;7.83;4.20;;;;;;;11.92;100.00;95712.34;4988967;28;103886;-61
2023/04/23 00:54:07;;;;;;;4.73;3.80;;;;;;;11.83;100.00;95706.78;4990594;28;102086;-61
2023/04/23 00:56:35;;;;;;;3.73;3.43;;;;;;;11.73;100.00;95706.06;4990805;28;101796;-61
2023/04/23 00:59:03;;;;;;;5.83;3.80;;;;;;;11.77;100.00;95707.09;4988755;28;105338;-61
2023/04/23 01:01:32;;;;;;;4.97;4.30;;;;;;;11.72;100.00;95704.47;4990270;28;102637;-61
2023/04/23 01:03:59;;;;;;;4.67;4.17;;;;;;;11.49;100.00;95705.03;4989406;28;103910;-61
2023/04/23 01:06:30;;;;;;;4.10;3.70;;;;;;;11.53;100.00;95700.78;4990190;28;102532;-61
2023/04/23 01:08:57;;;;;;;4.57;3.90;;;;;;;11.51;100.00;95703.69;4992762;28;101779;-61
2023/04/23 01:11:24;;;;;;;5.27;3.93;;;;;;;11.41;100.00;95702.94;4990040;28;102565;-61
2023/04/23 01:13:51;;;;;;;4.83;3.93;;;;;;;11.42;100.00;95705.34;4989204;28;101984;-61
2023/04/23 01:16:18;;;;;;;4.13;3.63;;;;;;;11.47;100.00;95708.00;4989221;28;104764;-61
2023/04/23 01:18:46;;;;;;;4.20;3.80;;;;;;;11.56;100.00;95706.34;4989813;28;102509;-61
2023/04/23 01:21:15;;;;;;;5.33;4.10;;;;;;;11.56;100.00;95710.88;4988890;28;102034;-61
2023/04/23 01:23:43;;;;;;;4.40;3.70;;;;;;;11.56;100.00;95705.56;4988262;28;105213;-61
2023/04/23 01:26:10;;;;;;;5.03;4.17;;;;;;;11.68;100.00;95708.72;4988202;28;105422;-61
2023/04/23 01:28:38;;;;;;;6.10;4.03;;;;;;;11.63;100.00;95709.56;4990072;28;101801;-61
2023/04/23 01:31:05;;;;;;;3.90;3.43;;;;;;;11.65;100.00;95703.94;4991973;28;103523;-61
2023/04/23 01:33:32;;;;;;;3.53;3.20;;;;;;;11.69;100.00;95710.31;4990021;28;101901;-61
2023/04/23 01:36:00;;;;;;;5.37;3.40;;;;;;;11.70;100.00;95712.72;4988768;28;105572;-61
2023/04/23 01:38:31;;;;;;;3.97;2.93;;;;;;;11.71;100.00;95702.84;4988107;28;105429;-61
2023/04/23 01:40:59;;;;;;;4.20;2.97;;;;;;;11.73;100.00;95706.81;4988707;28;101783;-61
2023/04/23 01:43:27;;;;;;;3.27;2.97;;;;;;;11.75;100.00;95709.22;4988325;28;105758;-61
2023/04/23 01:45:54;;;;;;;4.07;3.30;;;;;;;11.74;100.00;95702.31;4988409;28;102770;-61
2023/04/23 01:48:21;;;;;;;4.80;3.33;;;;;;;11.76;100.00;95705.50;4990080;28;102026;-61
2023/04/23 01:50:48;;;;;;;4.20;2.83;;;;;;;11.73;100.00;95701.50;4988583;28;105102;-61
2023/04/23 01:53:15;;;;;;;4.47;3.20;;;;;;;11.76;100.00;95702.81;4994289;28;104362;-61
2023/04/23 01:55:45;;;;;;;4.37;3.53;;;;;;;11.76;100.00;95710.81;4993704;28;102347;-61
2023/04/23 01:58:14;;;;;;;5.60;3.40;;;;;;;11.69;100.00;95713.00;4992770;28;102505;-61
2023/04/23 02:00:42;;;;;;;4.40;3.60;;;;;;;11.65;100.00;95711.94;4992045;28;101856;-61
2023/04/23 02:03:09;;;;;;;4.90;3.57;;;;;;;11.71;100.00;95703.66;4993218;28;102442;-61
2023/04/23 02:05:40;;;;;;;5.43;3.50;;;;;;;11.59;100.00;95710.34;4991290;28;105349;-61
2023/04/23 02:08:08;;;;;;;4.53;3.33;;;;;;;11.66;100.00;95710.88;4991837;28;101853;-61
2023/04/23 02:10:35;;;;;;;3.80;3.50;;;;;;;11.60;100.00;95710.09;4991798;28;105268;-61
2023/04/23 02:13:03;;;;;;;5.80;3.73;;;;;;;11.56;100.00;95708.22;4991156;28;105275;-61
2023/04/23 02:15:31;;;;;;;3.40;3.10;;;;;;;11.50;100.00;95702.09;4995120;28;101865;-61
2023/04/23 02:18:00;;;;;;;4.27;3.73;;;;;;;11.56;100.00;95711.66;4992534;28;101732;-61
2023/04/23 02:20:27;;;;;;;3.73;3.40;;;;;;;11.55;100.00;95709.31;4993052;28;101810;-61
2023/04/23 02:22:54;;;;;;;4.83;3.63;;;;;;;11.60;100.00;95718.09;4991249;28;105577;-61
2023/04/23 02:25:21;;;;;;;3.90;3.50;;;;;;;11.45;100.00;95714.66;4992485;28;101671;-61
2023/04/23 02:27:48;;;;;;;5.47;3.37;;;;;;;11.45;100.00;95710.13;4992776;28;102461;-61
2023/04/23 02:30:15;;;;;;;5.37;4.03;;;;;;;11.44;100.00;95710.41;4991607;28;105205;-61
2023/04/23 02:32:44;;;;;;;4.10;3.70;;;;;;;11.50;100.00;95706.66;4991029;28;105574;-61
2023/04/23 02:35:11;;;;;;;4.90;3.67;;;;;;;11.47;100.00;95701.88;4991212;28;101975;-61
2023/04/23 02:37:38;;;;;;;5.07;3.90;;;;;;;11.46;100.00;95702.94;4995917;28;102625;-61
2023/04/23 02:40:06;;;;;;;3.70;3.40;;;;;;;11.43;100.00;95701.63;4991341;28;101878;-61
2023/04/23 02:42:33;;;;;;;3.90;3.37;;;;;;;11.36;100.00;95694.97;4991204;28;105849;-61
2023/04/23 02:45:00;;;;;;;4.57;3.50;;;;;;;11.29;100.00;95691.81;4992044;28;102509;-61
2023/04/23 02:47:29;;;;;;;3.70;3.40;;;;;;;11.27;100.00;95691.28;4991406;28;101875;-61
2023/04/23 02:49:58;;;;;;;3.67;3.37;;;;;;;11.17;100.00;95688.66;4991131;28;104857;-61
2023/04/23 02:52:24;;;;;;;3.90;3.53;;;;;;;11.12;100.00;95694.00;4991923;28;102564;-61
2023/04/23 02:54:51;;;;;;;3.83;3.43;;;;;;;11.14;100.00;95691.84;4991378;28;101867;-61
2023/04/23 02:57:19;;;;;;;5.43;3.63;;;;;;;11.12;100.00;95683.34;4993953;28;105115;-61
2023/04/23 02:59:46;;;;;;;3.93;3.40;;;;;;;11.14;100.00;95692.66;4991064;28;102159;-61
2023/04/23 03:02:22;;;;;;;3.50;3.20;;;;;;;11.15;100.00;95698.78;4991257;28;105052;-61
2023/04/23 03:04:49;;;;;;;4.37;3.47;;;;;;;11.16;100.00;95695.03;4991308;28;102557;-61
2023/04/23 03:07:17;;;;;;;3.87;3.47;;;;;;;11.10;100.00;95696.13;4991003;28;101906;-61
2023/04/23 03:09:44;;;;;;;4.13;3.40;;;;;;;11.09;100.00;95700.66;4990704;28;104086;-61
2023/04/23 03:12:11;;;;;;;5.13;3.40;;;;;;;11.04;100.00;95689.22;4990404;28;105090;-61
2023/04/23 03:14:38;;;;;;;3.60;3.30;;;;;;;11.13;100.00;95698.25;4974605;28;102114;-61
2023/04/23 03:17:05;;;;;;;4.50;2.97;;;;;;;11.07;100.00;95697.44;4991005;28;104825;-61
2023/04/23 03:19:33;;;;;;;3.93;3.50;;;;;;;11.07;100.00;95697.44;4993421;28;105424;-61
2023/04/23 03:22:02;;;;;;;3.07;2.83;;;;;;;10.98;100.00;95695.63;4990638;28;105458;-61
2023/04/23 03:24:31;;;;;;;3.80;3.50;;;;;;;10.94;100.00;95695.34;4989751;28;105419;-61
2023/04/23 03:26:58;;;;;;;7.97;3.97;;;;;;;10.97;100.00;95702.00;4990693;28;101804;-61
2023/04/23 03:29:25;;;;;;;4.87;3.47;;;;;;;11.02;100.00;95696.69;4990515;28;105549;-61
2023/04/23 03:31:52;;;;;;;5.67;3.70;;;;;;;11.05;100.00;95701.44;4989988;28;106019;-61
2023/04/23 03:34:19;;;;;;;3.83;3.43;;;;;;;10.99;100.00;95700.69;4990558;28;101871;-61
2023/04/23 03:36:47;;;;;;;4.27;3.87;;;;;;;11.06;100.00;95700.41;4990419;28;104382;-61
2023/04/23 03:39:15;;;;;;;4.00;3.57;;;;;;;11.09;100.00;95705.97;4989971;28;105567;-61
2023/04/23 03:41:50;;;;;;;4.23;2.93;;;;;;;10.97;100.00;95705.44;4993816;28;101935;-61
2023/04/23 03:44:20;;;;;;;4.80;3.50;;;;;;;10.94;100.00;95705.19;4989777;28;105139;-61
2023/04/23 03:46:48;;;;;;;4.53;4.00;;;;;;;10.83;100.00;95696.44;4990328;28;101901;-61
2023/04/23 03:49:16;;;;;;;6.03;4.07;;;;;;;10.94;100.00;95703.34;4974114;28;105206;-61
2023/04/23 03:51:44;;;;;;;3.40;3.10;;;;;;;10.98;100.00;95700.94;4989529;28;105566;-61
2023/04/23 03:54:11;;;;;;;4.17;3.27;;;;;;;11.01;100.00;95698.53;4990249;28;102232;-61
2023/04/23 03:56:44;;;;;;;4.13;3.30;;;;;;;11.03;100.00;95708.91;4990297;28;105120;-61
2023/04/23 03:59:29;;;;;;;3.60;3.30;;;;;;;11.05;100.00;95709.44;4989650;28;104724;-61
2023/04/23 04:02:00;;;;;;;3.03;2.83;;;;;;;11.02;100.00;95707.31;4990209;28;101860;-61
2023/04/23 04:04:27;;;;;;;4.50;3.50;;;;;;;10.98;100.00;95711.56;4992926;28;105565;-61
2023/04/23 04:06:55;;;;;;;4.60;3.43;;;;;;;11.00;100.00;95717.41;4989788;28;102030;-61
2023/04/23 04:09:27;;;;;;;4.17;3.40;;;;;;;11.03;100.00;95711.56;4990036;28;105682;-61
2023/04/23 04:11:55;;;;;;;4.10;3.47;;;;;;;11.09;100.00;95713.97;4990805;28;102214;-61
2023/04/23 04:14:22;;;;;;;5.20;3.83;;;;;;;11.13;100.00;95719.53;4989815;28;102106;-61
2023/04/23 04:16:51;;;;;;;3.80;3.40;;;;;;;11.15;100.00;95717.41;4990296;28;102468;-61
2023/04/23 04:19:18;;;;;;;4.03;3.20;;;;;;;11.15;100.00;95720.06;4990628;28;102578;-61
2023/04/23 04:21:45;;;;;;;3.77;3.30;;;;;;;11.13;100.00;95719.53;4991251;28;101851;-61
2023/04/23 04:24:13;;;;;;;3.30;3.00;;;;;;;11.15;100.00;95730.69;4989015;28;103849;-61
2023/04/23 04:26:40;;;;;;;3.50;3.20;;;;;;;11.19;100.00;95731.75;4993968;28;103159;-61
2023/04/23 04:29:08;;;;;;;4.83;3.70;;;;;;;11.19;100.00;95726.44;4989617;28;105579;-61
2023/04/23 04:31:34;;;;;;;5.13;3.63;;;;;;;11.17;100.00;95729.38;4990525;28;102807;-61
2023/04/23 04:34:03;;;;;;;3.17;2.83;;;;;;;11.16;100.00;95732.28;4989593;28;102058;-61
2023/04/23 04:36:30;;;;;;;3.50;3.20;;;;;;;11.16;100.00;95735.75;4989167;28;105180;-61
2023/04/23 04:38:58;;;;;;;6.20;3.30;;;;;;;11.17;100.00;95741.88;4990210;28;103210;-61
2023/04/23 04:41:26;;;;;;;7.23;3.50;;;;;;;11.10;100.00;95738.69;4989557;28;102004;-61
2023/04/23 04:43:54;;;;;;;7.00;4.13;;;;;;;10.90;100.00;95752.03;4990720;28;102649;-61
2023/04/23 04:46:22;;;;;;;5.13;4.63;;;;;;;10.84;100.00;95742.47;4989078;28;103730;-61
2023/04/23 04:48:49;;;;;;;6.03;4.50;;;;;;;11.00;100.00;95754.66;4994290;28;101822;-61
2023/04/23 04:51:17;;;;;;;5.47;4.50;;;;;;;11.11;100.00;95750.91;4989821;28;102847;-61
2023/04/23 04:53:44;;;;;;;5.33;4.63;;;;;;;11.12;100.00;95753.31;4989174;28;102172;-61
2023/04/23 04:56:11;;;;;;;5.43;4.90;;;;;;;11.16;100.00;95748.25;4990994;28;102527;-61
2023/04/23 04:58:38;;;;;;;5.23;4.63;;;;;;;11.20;100.00;95747.47;4989990;28;103136;-61
2023/04/23 05:01:06;;;;;;;5.90;5.07;;;;;;;11.27;100.00;95749.81;4989212;28;102076;-61
2023/04/23 05:03:33;;;;;;;5.67;5.13;;;;;;;11.27;100.00;95765.78;4989122;28;103723;-61
2023/04/23 05:06:00;;;;;;;5.87;5.37;;;;;;;11.33;100.00;95767.41;4988400;28;105206;-61
2023/04/23 05:08:29;;;;;;;7.10;5.73;;;;;;;11.40;100.00;95755.38;4993794;28;101934;-61
2023/04/23 05:10:56;;;;;;;7.13;4.97;;;;;;;11.40;100.00;95762.59;4989806;28;102571;-61
2023/04/23 05:13:22;;;;;;;4.67;4.17;;;;;;;11.46;100.00;95758.84;4989234;28;101888;-61
2023/04/23 05:15:49;;;;;;;5.83;5.00;;;;;;;11.36;100.00;95769.50;4988995;28;103561;-61
2023/04/23 05:18:16;;;;;;;4.83;4.33;;;;;;;11.24;100.00;95777.78;4988523;28;105363;-61
2023/04/23 05:20:43;;;;;;;4.63;3.57;;;;;;;11.30;100.00;95766.09;4989023;28;101934;-61
2023/04/23 05:23:10;;;;;;;4.87;4.37;;;;;;;11.38;100.00;95778.00;4988361;28;104950;-61
2023/04/23 05:25:38;;;;;;;4.20;3.80;;;;;;;11.34;100.00;95774.31;4988333;28;105446;-61
2023/04/23 05:28:07;;;;;;;4.97;3.43;;;;;;;11.38;100.00;95786.00;4988644;28;101906;-61
2023/04/23 05:30:34;;;;;;;6.27;4.20;;;;;;;11.26;100.00;95785.50;4991559;28;105076;-61
2023/04/23 05:33:01;;;;;;;4.50;4.10;;;;;;;11.22;100.00;95787.91;4988704;28;101913;-61
2023/04/23 05:35:28;;;;;;;4.83;4.10;;;;;;;11.24;100.00;95790.31;4990164;28;103440;-61
2023/04/23 05:37:55;;;;;;;5.17;3.90;;;;;;;11.35;100.00;95791.88;4987979;28;105551;-61
2023/04/23 05:40:22;;;;;;;4.80;4.30;;;;;;;11.35;100.00;95790.00;4990184;28;101839;-61
2023/04/23 05:42:50;;;;;;;5.33;4.20;;;;;;;11.31;100.00;95799.59;4987678;28;104934;-61
2023/04/23 05:45:17;;;;;;;4.37;3.97;;;;;;;11.45;100.00;95802.50;4971508;28;105403;-61
2023/04/23 05:47:44;;;;;;;5.33;4.13;;;;;;;11.46;100.00;95812.88;4988640;28;101762;-61
2023/04/23 05:50:11;;;;;;;4.00;3.60;;;;;;;11.47;100.00;95811.03;4988218;28;104231;-61
2023/04/23 05:52:38;;;;;;;3.50;3.20;;;;;;;11.45;100.00;95811.28;4991363;28;105004;-61
2023/04/23 05:55:06;;;;;;;3.50;3.20;;;;;;;11.40;100.00;95818.50;4988629;28;105211;-61
2023/04/23 05:57:33;;;;;;;4.30;3.33;;;;;;;11.37;100.00;95819.03;4989273;28;103180;-61
2023/04/23 06:00:01;;;;;;;4.10;3.30;;;;;;;11.42;100.00;95827.81;4989505;28;101830;-61
2023/04/23 06:02:39;;;;;;;4.23;3.30;;;;;;;11.40;100.00;95834.47;4986657;28;102177;-61
2023/04/23 06:05:07;;;;;;;4.30;3.10;;;;;;;11.41;100.00;95833.41;4987384;28;105312;-61
2023/04/23 06:07:34;;;;;;;2.93;2.63;;;;;;;11.41;100.00;95844.03;4989682;28;101787;-61
2023/04/23 06:10:02;;;;;;;4.63;3.23;;;;;;;11.50;100.00;95851.22;4989807;28;102814;-61
2023/04/23 06:12:29;;;;;;;4.53;3.60;;;;;;;11.56;100.00;95852.00;4988976;28;102525;-61
2023/04/23 06:14:55;;;;;;;4.87;3.17;;;;;;;11.74;100.00;95856.81;4993273;28;102069;-61
2023/04/23 06:17:24;;;;;;;3.93;3.30;;;;;;;11.75;100.00;95856.53;4994333;28;102584;-60
2023/04/23 06:19:51;;;;;;;4.10;2.90;;;;;;;11.87;100.00;95857.03;5009222;28;101912;-61
2023/04/23 06:22:18;;;;;;;3.87;2.90;;;;;;;12.01;100.00;95858.06;5009540;28;102321;-61
2023/04/23 06:24:45;;;;;;;3.63;3.27;;;;;;;12.09;100.00;95862.81;5008787;28;102550;-61
2023/04/23 06:27:13;;;;;;;3.93;3.40;;;;;;;12.23;100.00;95863.84;5009473;28;101740;-61
2023/04/23 06:29:44;;;;;;;4.20;3.30;;;;;;;12.30;100.00;95861.66;5008100;28;104880;-61
2023/04/23 06:32:11;;;;;;;4.17;3.77;;;;;;;12.33;100.00;95863.78;5007339;28;105179;-61
2023/04/23 06:34:39;;;;;;;4.67;3.13;;;;;;;12.51;100.00;95862.38;5007848;28;101997;-61
2023/04/23 06:37:06;;;;;;;3.83;3.53;;;;;;;12.72;100.00;95864.66;5010847;28;105273;-60
2023/04/23 06:39:34;;;;;;;4.20;3.30;;;;;;;12.84;100.00;95872.31;5009492;28;101869;-61
2023/04/23 06:42:00;;;;;;;4.37;3.47;;;;;;;12.84;100.00;95866.97;5010923;28;105119;-61
2023/04/23 06:44:34;;;;;;;4.43;3.77;;;;;;;13.00;100.00;95871.16;4994856;28;105664;-61
2023/04/23 06:47:03;;;;;;;5.57;3.77;;;;;;;13.02;100.00;95863.69;5011390;28;101824;-61
2023/04/23 06:49:30;;;;;;;3.60;3.30;;;;;;;13.00;100.00;95863.97;5010799;28;105531;-60
2023/04/23 06:51:58;;;;;;;7.70;3.20;;;;;;;13.01;100.00;95862.88;5010509;28;105256;-60
2023/04/23 06:54:25;;;;;;;3.70;3.27;;;;;;;12.96;100.00;95865.59;5010955;28;102169;-61
2023/04/23 06:56:51;;;;;;;3.50;3.20;;;;;;;13.02;100.00;95864.47;5011371;28;105309;-61
2023/04/23 06:59:19;;;;;;;3.40;3.10;;;;;;;13.08;100.00;95862.59;5013650;28;102014;-61
2023/04/23 07:01:50;;;;;;;3.90;3.30;;;;;;;13.09;100.00;95869.50;5011065;28;105354;-61
2023/04/23 07:04:17;;;;;;;4.47;3.20;;;;;;;13.10;100.00;95857.75;5010379;28;105396;-61
2023/04/23 07:06:43;;;;;;;3.57;2.90;;;;;;;13.21;100.00;95851.25;5010950;28;102398;-61
2023/04/23 07:09:12;;;;;;;5.13;3.80;;;;;;;13.31;100.00;95843.16;5011066;28;104940;-61
2023/04/23 07:11:39;;;;;;;3.23;2.97;;;;;;;13.28;100.00;95849.88;5010136;28;105352;-60
2023/04/23 07:14:06;;;;;;;3.50;3.20;;;;;;;13.34;100.00;95846.06;5010615;28;101988;-61
2023/04/23 07:16:33;;;;;;;3.37;3.00;;;;;;;13.47;100.00;95847.31;4998795;28;102707;-61
2023/04/23 07:19:01;;;;;;;4.53;3.60;;;;;;;13.65;100.00;95846.59;4993470;28;104614;-61
2023/04/23 07:21:28;;;;;;;6.60;3.90;;;;;;;13.54;100.00;95840.56;4992142;28;102801;-61
2023/04/23 07:23:57;;;;;;;4.30;3.40;;;;;;;13.69;100.00;95842.28;4989386;28;105443;-61
2023/04/23 07:26:27;;;;;;;5.50;3.87;;;;;;;13.86;100.00;95847.97;4992428;28;101979;-60
2023/04/23 07:28:54;;;;;;;2.90;2.70;;;;;;;13.70;100.00;95843.88;4992068;28;102507;-61
2023/04/23 07:31:22;;;;;;;3.63;3.13;;;;;;;13.98;100.00;95849.19;4989899;28;105738;-61
2023/04/23 07:33:49;;;;;;;4.30;3.00;;;;;;;13.62;100.00;95844.50;4990580;28;101968;-61
2023/04/23 07:36:16;;;;;;;3.40;3.10;;;;;;;13.32;100.00;95848.25;4991840;28;102370;-61
2023/04/23 07:38:43;;;;;;;2.77;2.57;;;;;;;13.40;100.00;95844.16;4991251;28;102617;-60
2023/04/23 07:41:10;;;;;;;3.10;2.80;;;;;;;13.50;100.00;95841.38;4993589;28;101925;-61
2023/04/23 07:43:38;;;;;;;3.47;2.83;;;;;;;13.54;100.00;95845.09;4989639;28;105377;-61
2023/04/23 07:46:06;;;;;;;3.80;3.20;;;;;;;13.70;100.00;95844.69;4991609;28;101733;-61
2023/04/23 07:48:34;;;;;;;4.10;3.60;;;;;;;13.85;100.00;95841.03;4991596;28;102876;-61
2023/04/23 07:51:01;;;;;;;5.13;3.10;;;;;;;13.73;100.00;95844.09;5004131;28;102538;-61
2023/04/23 07:53:29;;;;;;;3.50;3.20;;;;;;;13.62;100.00;95839.16;5009838;28;102131;-61
2023/04/23 07:55:57;;;;;;;3.63;3.33;;;;;;;13.47;100.00;95837.41;5010057;28;105213;-61
2023/04/23 07:58:25;;;;;;;3.30;3.10;;;;;;;13.62;100.00;95839.94;5011055;28;102488;-60
2023/04/23 08:00:53;;;;;;;3.63;3.33;;;;;;;13.67;100.00;95839.06;5011216;28;101814;-61
2023/04/23 08:03:20;;;;;;;3.33;3.03;;;;;;;13.96;100.00;95837.19;5012848;28;105552;-61
2023/04/23 08:05:47;;;;;;;3.37;3.07;;;;;;;14.03;100.00;95838.44;5010183;28;102225;-61
2023/04/23 08:08:14;;;;;;;3.73;3.40;;;;;;;14.05;100.00;95833.59;5011437;28;102406;-61
2023/04/23 08:10:41;;;;;;;2.93;2.67;;;;;;;14.10;100.00;95830.84;5010786;28;102622;-61
2023/04/23 08:13:08;;;;;;;3.20;2.90;;;;;;;14.33;100.00;95818.59;5011232;28;101908;-61
2023/04/23 08:15:35;;;;;;;3.93;2.80;;;;;;;14.59;100.00;95820.63;5009459;28;104038;-60
2023/04/23 08:18:05;;;;;;;2.93;2.67;;;;;;;14.30;100.00;95821.81;5010545;28;103152;-61
2023/04/23 08:20:32;;;;;;;3.07;2.77;;;;;;;14.19;100.00;95828.34;5011059;28;101829;-62
2023/04/23 08:22:59;;;;;;;3.20;3.00;;;;;;;14.36;100.00;95836.72;5009315;28;105519;-61
2023/04/23 08:25:26;;;;;;;3.57;2.90;;;;;;;14.37;100.00;95835.63;5014094;28;102769;-61
2023/04/23 08:27:53;;;;;;;3.37;2.90;;;;;;;14.73;100.00;95834.09;5011134;28;102433;-61
2023/04/23 08:30:20;;;;;;;2.93;2.67;;;;;;;14.42;100.00;95840.91;5010441;28;102509;-61
2023/04/23 08:32:50;;;;;;;2.63;2.43;;;;;;;14.16;100.00;95834.25;5010708;28;101826;-61
2023/04/23 08:35:18;;;;;;;6.13;4.73;;;;;;;14.18;100.00;95837.47;5010869;28;103152;-61
2023/04/23 08:37:45;;;;;;;3.53;2.57;;;;;;;13.86;100.00;95838.09;5010491;28;102548;-61
2023/04/23 08:40:13;;;;;;;2.73;2.37;;;;;;;13.70;100.00;95839.34;5010899;28;102307;-61
2023/04/23 08:42:43;;;;;;;4.37;2.67;;;;;;;13.90;100.00;95843.66;5010585;28;103148;-61
2023/04/23 08:45:12;;;;;;;2.90;2.40;;;;;;;13.91;100.00;95845.25;5008931;28;104988;-61
2023/04/23 08:47:41;;;;;;;2.57;2.33;;;;;;;13.90;100.00;95841.00;5014283;28;101736;-61
2023/04/23 08:50:10;;;;;;;2.90;2.60;;;;;;;13.92;100.00;95836.97;5010068;28;103089;-61
2023/04/23 08:52:42;;;;;;;2.97;2.70;;;;;;;14.04;100.00;95839.22;5008970;28;101792;-60
2023/04/23 08:55:10;;;;;;;3.40;3.10;;;;;;;13.81;100.00;95840.00;5009330;28;105541;-60
2023/04/23 08:57:39;;;;;;;3.53;3.17;;;;;;;13.59;100.00;95837.03;5009897;28;103116;-61
2023/04/23 09:00:09;;;;;;;3.77;3.10;;;;;;;13.61;100.00;95834.88;5010494;28;101869;-61
2023/04/23 09:02:36;;;;;;;5.10;3.27;;;;;;;13.46;100.00;95827.00;5009309;28;102850;-61
2023/04/23 09:05:04;;;;;;;3.60;3.30;;;;;;;13.42;100.00;95834.00;5008340;28;104882;-61
2023/04/23 09:07:31;;;;;;;3.53;3.23;;;;;;;13.40;100.00;95836.16;5014105;28;101830;-61
2023/04/23 09:09:59;;;;;;;3.63;3.33;;;;;;;13.36;100.00;95838.56;5008285;28;103875;-61
2023/04/23 09:12:27;;;;;;;5.17;3.80;;;;;;;13.54;100.00;95831.72;5008555;28;101895;-61
2023/04/23 09:14:54;;;;;;;3.10;2.90;;;;;;;13.62;100.00;95833.81;5008568;28;103602;-61
2023/04/23 09:17:22;;;;;;;3.23;3.00;;;;;;;13.51;100.00;95833.09;5009774;28;102487;-61
2023/04/23 09:19:50;;;;;;;3.23;2.87;;;;;;;13.46;100.00;95829.69;5010266;28;101908;-61
2023/04/23 09:22:38;;;;;;;4.23;2.97;;;;;;;13.70;100.00;95827.84;5010260;28;102309;-61
2023/04/23 09:25:08;;;;;;;4.97;3.43;;;;;;;13.81;100.00;95824.78;5009728;28;102916;-61
2023/04/23 09:27:36;;;;;;;3.47;3.17;;;;;;;13.74;100.00;95823.53;5010311;28;102067;-61
2023/04/23 09:30:06;;;;;;;3.10;2.87;;;;;;;13.78;100.00;95816.50;5012937;28;102511;-61
2023/04/23 09:32:34;;;;;;;3.17;2.90;;;;;;;13.52;100.00;95815.19;5010080;28;101903;-61
2023/04/23 09:35:04;;;;;;;3.20;3.00;;;;;;;13.65;100.00;95814.53;5009821;28;102407;-61
2023/04/23 09:37:31;;;;;;;3.40;3.20;;;;;;;13.63;100.00;95811.34;5009500;28;102561;-61
2023/04/23 09:40:03;;;;;;;4.67;3.60;;;;;;;13.71;100.00;95813.38;5010195;28;101863;-60
2023/04/23 09:42:33;;;;;;;3.77;3.03;;;;;;;13.58;100.00;95808.72;5009648;28;101856;-61
2023/04/23 09:45:04;;;;;;;3.27;3.07;;;;;;;13.57;100.00;95807.13;5009398;28;102679;-60
2023/04/23 09:47:33;;;;;;;4.20;3.33;;;;;;;13.64;100.00;95810.25;5010089;28;102123;-60
2023/04/23 09:50:00;;;;;;;3.20;3.00;;;;;;;13.57;100.00;95804.47;5009840;28;102313;-61
2023/04/23 09:52:29;;;;;;;4.53;3.30;;;;;;;13.68;100.00;95800.63;5012708;28;102529;-61
2023/04/23 09:54:58;;;;;;;5.40;4.43;;;;;;;13.62;100.00;95797.19;5008242;28;105681;-61
2023/04/23 09:57:25;;;;;;;4.53;4.13;;;;;;;13.80;100.00;95801.00;5007501;28;103918;-61
2023/04/23 09:59:56;;;;;;;3.87;3.57;;;;;;;13.94;100.00;95796.56;5008185;28;101906;-61
2023/04/23 10:02:27;;;;;;;3.37;3.13;;;;;;;14.07;100.00;95790.53;5009815;28;102894;-61
2023/04/23 10:04:55;;;;;;;3.73;3.43;;;;;;;13.96;100.00;95789.84;5007664;28;105165;-60
2023/04/23 10:07:23;;;;;;;4.43;3.53;;;;;;;14.35;100.00;95798.50;5008352;28;101872;-61
2023/04/23 10:09:49;;;;;;;4.33;3.87;;;;;;;14.32;100.00;95793.72;5008221;28;104810;-61
2023/04/23 10:12:17;;;;;;;4.20;3.70;;;;;;;14.28;100.00;95786.56;5007266;28;105776;-61
2023/04/23 10:14:48;;;;;;;4.00;3.63;;;;;;;14.37;100.00;95792.84;5013809;28;101903;-60
2023/04/23 10:17:17;;;;;;;3.77;3.47;;;;;;;14.62;100.00;95782.59;5011263;28;105775;-61
2023/04/23 10:19:44;;;;;;;4.13;3.73;;;;;;;14.89;100.00;95782.69;5011452;28;102101;-61
2023/04/23 10:22:14;;;;;;;3.60;3.30;;;;;;;14.48;100.00;95772.88;5013347;28;102662;-61
2023/04/23 10:24:42;;;;;;;3.97;3.40;;;;;;;14.61;100.00;95767.59;5010246;28;106067;-60
2023/04/23 10:27:12;;;;;;;3.67;3.37;;;;;;;14.37;100.00;95769.56;5011426;28;101840;-61
2023/04/23 10:29:39;;;;;;;3.67;3.37;;;;;;;14.60;100.00;95763.34;5011675;28;104766;-61
2023/04/23 10:32:06;;;;;;;3.30;2.97;;;;;;;14.61;100.00;95764.16;5010940;28;106013;-61
2023/04/23 10:34:35;;;;;;;4.03;3.27;;;;;;;15.19;100.00;95759.97;5011753;28;101981;-60
2023/04/23 10:37:03;;;;;;;3.90;3.60;;;;;;;15.63;100.00;95754.91;5014090;28;103710;-61
2023/04/23 10:39:33;;;;;;;4.00;3.60;;;;;;;15.94;100.00;95747.88;5012805;28;102234;-60
2023/04/23 10:42:01;;;;;;;3.70;3.40;;;;;;;16.25;100.00;95735.44;5012312;28;104596;-61
2023/04/23 10:44:36;;;;;;;3.13;2.93;;;;;;;16.15;100.00;95731.09;5010595;28;105071;-61
2023/04/23 10:47:04;;;;;;;4.80;3.37;;;;;;;16.29;100.00;95728.38;4994527;28;101903;-60
2023/04/23 10:49:32;;;;;;;3.43;3.20;;;;;;;16.73;100.00;95723.88;5012593;28;102460;-60
2023/04/23 10:52:02;;;;;;;3.20;2.90;;;;;;;16.76;100.00;95725.97;5011802;28;102735;-61
2023/04/23 10:54:31;;;;;;;4.20;2.93;;;;;;;16.77;100.00;95719.50;5011175;28;101904;-61
2023/04/23 10:57:01;;;;;;;3.10;2.90;;;;;;;16.51;100.00;95712.34;5011341;28;103894;-61
2023/04/23 10:59:30;;;;;;;3.33;3.10;;;;;;;17.13;100.00;95708.66;5015468;28;102550;-61
2023/04/23 11:01:59;;;;;;;3.20;2.90;;;;;;;17.12;100.00;95701.72;5012057;28;102880;-61
2023/04/23 11:04:27;;;;;;;3.23;2.93;;;;;;;17.68;100.00;95696.47;5011672;28;102634;-60
2023/04/23 11:06:56;;;;;;;2.87;2.67;;;;;;;17.84;100.00;95698.44;5012520;28;101752;-61
2023/04/23 11:09:39;;;;;;;3.57;3.00;;;;;;;18.29;100.00;95686.31;5012195;28;102394;-60
2023/04/23 11:12:08;;;;;;;2.87;2.67;;;;;;;18.33;100.00;95681.94;4993729;28;105667;-60
2023/04/23 11:14:37;;;;;;;4.30;2.70;;;;;;;18.43;100.00;95672.75;5010766;28;101785;-61
2023/04/23 11:17:05;;;;;;;2.90;2.70;;;;;;;18.47;100.00;95673.69;5010908;28;105180;-61
2023/04/23 11:19:35;;;;;;;2.70;2.50;;;;;;;17.69;100.00;95668.47;5013572;28;104025;-60
2023/04/23 11:22:05;;;;;;;2.90;2.70;;;;;;;18.52;100.00;95668.16;5012232;28;102942;-61